ワルシャワ の空港の天気 - METARとTAF

ワルシャワ・フレデリック・ショパン空港 ( EPWA / WAW ) - ポーランド ワルシャワ
飛行場実況気象(Metar)
観測時間02/20 16:00 CET (02/20 15:00 UTC)
風向・風速南南西 6m/s
視程10km以上
天気現象
全天の8割程度の雲 雲底高度 980m
気温5℃
湿度81%
気圧1009hPa
METAREPWA 201500Z 21011KT 190V250 9999 BKN032 05/02 Q1009 NOSIG
過去の天気等 Google飛行場航空写真 Wunderground天気予報

過去48時間のMETAR

飛行場予報(TAF)
発表時間: 2/20 12:30 CET (2/20 11:30 UTC)
予報対象時間: 20日13時 CET ~ 21日13時 CET
風向・風速南西 5m/s
視程7,000m
全天の8割程度の雲 雲底高度 300m
20日13時 CET ~ 20日19時 CET に一時的に
全天の8割程度の雲 雲底高度 550m
20日19時 CET ~ 21日13時 CET に一時的に
風向・風速西南西 9m/s 瞬間風速 14m/s
20日20時 CET ~ 21日6時 CET に 確率 40% で一時的に
視程4,000m
天気現象
全天の8割程度の雲 雲底高度 210m
TAF EPWA 201130Z 2012/2112 23010KT 7000 BKN010
TEMPO 2012/2018 BKN018
TEMPO 2018/2112 25017G27KT
PROB40 TEMPO 2019/2105 4000 RA BKN007